Thursday, April 19, 2018, 4:26 PM CDT
Back to Local

KHYS, Hays, Hays Regional Airport

Location: Hays, KS, United States Lat: 38.85
Local Time: 4:26 PM CDT (21:26 GMT) Lon: -99.267
Time Zone: US/Central Elev: 1998 ft

Show me the last for .
Show Decoded

2018-04-19 15:56 METAR KHYS 192056Z AUTO 08011KT 10SM CLR 16/M03 A3033 RMK AO2 SLP281 T01561033
                 58033 =
2018-04-19 14:56 METAR KHYS 191956Z AUTO 07008G18KT 10SM CLR 14/M03 A3038 RMK AO2 SLP294
                 T01441033 =
2018-04-19 13:56 METAR KHYS 191856Z AUTO 08006KT 10SM CLR 13/M04 A3041 RMK AO2 SLP308 T01281039 =
2018-04-19 12:56 METAR KHYS 191756Z AUTO 08006KT 10SM CLR 12/M02 A3044 RMK AO2 SLP315 T01171022
                 10122 21028 58011 =
2018-04-19 11:56 METAR KHYS 191656Z AUTO 09005KT 10SM CLR 09/M01 A3046 RMK AO2 SLP325 T00941011 =
2018-04-19 10:56 METAR KHYS 191556Z AUTO 05007KT 10SM CLR 08/M01 A3047 RMK AO2 SLP327 T00831006 =
2018-04-19 09:56 METAR KHYS 191456Z AUTO 05008KT 10SM CLR 07/00 A3047 RMK AO2 SLP329 T00670000
                 51018 =
2018-04-19 08:56 METAR KHYS 191356Z AUTO 04011KT 10SM CLR 05/M01 A3045 RMK AO2 SLP321 T00501006 =
2018-04-19 07:56 METAR KHYS 191256Z AUTO 35004KT 10SM CLR 01/M02 A3044 RMK AO2 SLP317 T00061017
                 FZRANO =
2018-04-19 06:56 METAR KHYS 191156Z AUTO 33004KT 10SM CLR M02/M04 A3041 RMK AO2 SLP309 T10221044
                 10028 21033 51017 FZRANO =
2018-04-19 05:56 METAR KHYS 191056Z AUTO 35005KT 10SM CLR M02/M04 A3040 RMK AO2 SLP304 T10171044
                 FZRANO =
2018-04-19 04:56 METAR KHYS 190956Z AUTO 32006KT 10SM CLR M01/M04 A3038 RMK AO2 SLP297 T10111039
                 FZRANO =
2018-04-19 03:56 METAR KHYS 190856Z AUTO 29005KT 10SM CLR M03/M05 A3036 RMK AO2 SLP291 T10281050
                 51017 FZRANO =
2018-04-19 02:56 METAR KHYS 190756Z AUTO 33005KT 10SM CLR 00/M04 A3035 RMK AO2 SLP283 T00001039
                 FZRANO =
2018-04-19 01:56 METAR KHYS 190656Z AUTO 29003KT 10SM CLR 01/M03 A3033 RMK AO2 SLP277 T00061033
                 FZRANO =
2018-04-19 00:56 METAR KHYS 190556Z AUTO 03004KT 10SM CLR 02/M03 A3031 RMK AO2 SLP269 T00221033
                 10144 20022 401670022 51013 FZRANO =
2018-04-18 23:56 METAR KHYS 190456Z AUTO 02005KT 10SM CLR 05/M02 A3030 RMK AO2 SLP264 T00501022 =
2018-04-18 22:56 METAR KHYS 190356Z AUTO 05004KT 10SM CLR 06/M02 A3029 RMK AO2 SLP262 T00611022 =
2018-04-18 21:56 METAR KHYS 190256Z AUTO 04008KT 10SM CLR 06/M02 A3027 RMK AO2 SLP255 T00561022
                 53026 TSNO =
2018-04-18 20:56 METAR KHYS 190156Z AUTO 03010KT 10SM CLR 09/M02 A3024 RMK AO2 SLP244 T00891017 =
2018-04-18 19:56 METAR KHYS 190056Z AUTO 03015G22KT 10SM CLR 12/M02 A3021 RMK AO2 PK WND
                 02026/0019 SLP233 T01171017 =
2018-04-18 18:56 METAR KHYS 182356Z AUTO 01018KT 10SM CLR 14/M02 A3018 RMK AO2 PK WND 36028/2315
                 SLP224 T01441022 10167 20133 53012 =
2018-04-18 17:56 METAR KHYS 182256Z AUTO 01024G31KT 10SM SCT075 16/M03 A3016 RMK AO2 PK WND
                 33036/2207 SLP214 T01561028 =
2018-04-18 16:56 METAR KHYS 182156Z AUTO 35022G31KT 10SM SCT075 16/M03 A3015 RMK AO2 PK WND
                 36031/2152 SLP210 T01611028 =

Support USWX by starting your Amazon purchase here.